NKS1832 KATL-KFLL
Flight info
| Callsign | NKS1832 |
|---|---|
| Flight time | 1h 26m |
| Altitude | 39000 |
| Route | SMLTZ3 WALET ZPLEN TEEKY4 |
| Aircraft | A20N/M-SDE2E3FGHIRWXY/LB1 |
Departure
| Time | 2026-05-03 22:45 |
|---|---|
| Airport | Hartsfield Jackson Atlanta International Airport (KATL) |
Arrival
| Time | 2026-05-04 00:12 |
|---|---|
| Airport | Fort Lauderdale Hollywood International Airport (KFLL) |
| Time | Latitude | Longitude | Altitude | Speed | Heading |
|---|---|---|---|---|---|
| 2026-05-03 22:13 | 33.64152 | -84.42883 | 1006 ft | 0 kts | 283° |
| 2026-05-03 22:32 | 33.64150 | -84.42873 | 1006 ft | 2 kts | 283° |
| 2026-05-03 22:32 | 33.64146 | -84.42855 | 1006 ft | 2 kts | 283° |
| 2026-05-03 22:33 | 33.64143 | -84.42838 | 1006 ft | 2 kts | 283° |
| 2026-05-03 22:33 | 33.64140 | -84.42820 | 1006 ft | 2 kts | 283° |
| 2026-05-03 22:33 | 33.64136 | -84.42802 | 1006 ft | 2 kts | 283° |
| 2026-05-03 22:33 | 33.64133 | -84.42784 | 1006 ft | 2 kts | 283° |
| 2026-05-03 22:34 | 33.64130 | -84.42767 | 1006 ft | 2 kts | 263° |
| 2026-05-03 22:34 | 33.64132 | -84.42755 | 1006 ft | 2 kts | 244° |
| 2026-05-03 22:34 | 33.64140 | -84.42740 | 1006 ft | 2 kts | 214° |
| 2026-05-03 22:34 | 33.64153 | -84.42732 | 1006 ft | 2 kts | 193° |
| 2026-05-03 22:35 | 33.64160 | -84.42730 | 1006 ft | 0 kts | 184° |
| 2026-05-03 22:38 | 33.64158 | -84.42730 | 1006 ft | 2 kts | 184° |
| 2026-05-03 22:38 | 33.64133 | -84.42732 | 1006 ft | 5 kts | 184° |
| 2026-05-03 22:38 | 33.64083 | -84.42733 | 1006 ft | 9 kts | 180° |
| 2026-05-03 22:38 | 33.64010 | -84.42734 | 1006 ft | 9 kts | 181° |
| 2026-05-03 22:39 | 33.63953 | -84.42732 | 1006 ft | 9 kts | 179° |
| 2026-05-03 22:39 | 33.63883 | -84.42732 | 1006 ft | 11 kts | 180° |
| 2026-05-03 22:39 | 33.63792 | -84.42732 | 1006 ft | 14 kts | 180° |
| 2026-05-03 22:39 | 33.63704 | -84.42731 | 1006 ft | 6 kts | 180° |
| 2026-05-03 22:40 | 33.63685 | -84.42728 | 1006 ft | 4 kts | 166° |
| 2026-05-03 22:40 | 33.63655 | -84.42686 | 1006 ft | 11 kts | 103° |
| 2026-05-03 22:40 | 33.63657 | -84.42566 | 1006 ft | 17 kts | 90° |
| 2026-05-03 22:40 | 33.63656 | -84.42410 | 1006 ft | 20 kts | 90° |
| 2026-05-03 22:41 | 33.63656 | -84.42233 | 1006 ft | 22 kts | 93° |
| 2026-05-03 22:41 | 33.63654 | -84.42103 | 1006 ft | 7 kts | 94° |
| 2026-05-03 22:41 | 33.63654 | -84.42032 | 1006 ft | 10 kts | 89° |
| 2026-05-03 22:41 | 33.63655 | -84.41932 | 1006 ft | 14 kts | 90° |
| 2026-05-03 22:42 | 33.63654 | -84.41803 | 1006 ft | 17 kts | 90° |
| 2026-05-03 22:42 | 33.63654 | -84.41649 | 1006 ft | 20 kts | 90° |
| 2026-05-03 22:42 | 33.63654 | -84.41471 | 1005 ft | 23 kts | 90° |
| 2026-05-03 22:42 | 33.63656 | -84.41285 | 1006 ft | 13 kts | 89° |
| 2026-05-03 22:43 | 33.63655 | -84.41163 | 1006 ft | 16 kts | 91° |
| 2026-05-03 22:43 | 33.63653 | -84.41020 | 1006 ft | 19 kts | 91° |
| 2026-05-03 22:43 | 33.63627 | -84.40912 | 1006 ft | 12 kts | 152° |
| 2026-05-03 22:43 | 33.63537 | -84.40909 | 1006 ft | 14 kts | 184° |
| 2026-05-03 22:44 | 33.63472 | -84.40983 | 1006 ft | 15 kts | 266° |
| 2026-05-03 22:44 | 33.63473 | -84.41281 | 1005 ft | 69 kts | 269° |
| 2026-05-03 22:44 | 33.63473 | -84.42119 | 1006 ft | 127 kts | 270° |
| 2026-05-03 22:44 | 33.63474 | -84.43362 | 1006 ft | 169 kts | 270° |
| 2026-05-03 22:45 | 33.63481 | -84.44849 | 1335 ft | 176 kts | 271° |
| 2026-05-03 22:45 | 33.63461 | -84.46283 | 2063 ft | 172 kts | 269° |
| 2026-05-03 22:45 | 33.63407 | -84.47783 | 2421 ft | 194 kts | 269° |
| 2026-05-03 22:45 | 33.63330 | -84.49471 | 2740 ft | 215 kts | 269° |
| 2026-05-03 22:46 | 33.63275 | -84.51352 | 3124 ft | 233 kts | 270° |
| 2026-05-03 22:46 | 33.63236 | -84.53395 | 3537 ft | 253 kts | 269° |
| 2026-05-03 22:46 | 33.63206 | -84.55566 | 4249 ft | 263 kts | 270° |
| 2026-05-03 22:46 | 33.63201 | -84.57722 | 5499 ft | 254 kts | 271° |
| 2026-05-03 22:47 | 33.63230 | -84.59851 | 6449 ft | 263 kts | 273° |
| 2026-05-03 22:47 | 33.63286 | -84.62098 | 7230 ft | 276 kts | 274° |
| 2026-05-03 22:47 | 33.63219 | -84.64396 | 8351 ft | 263 kts | 253° |
| 2026-05-03 22:47 | 33.62400 | -84.66352 | 9547 ft | 274 kts | 236° |
| 2026-05-03 22:48 | 33.60956 | -84.67980 | 10136 ft | 294 kts | 216° |
| 2026-05-03 22:48 | 33.59081 | -84.69096 | 10910 ft | 306 kts | 202° |
| 2026-05-03 22:48 | 33.57025 | -84.69646 | 11890 ft | 308 kts | 187° |
| 2026-05-03 22:48 | 33.54902 | -84.69512 | 13105 ft | 302 kts | 169° |
| 2026-05-03 22:49 | 33.52996 | -84.68587 | 14437 ft | 289 kts | 152° |
| 2026-05-03 22:49 | 33.51179 | -84.67281 | 13606 ft | 329 kts | 150° |
| 2026-05-03 22:49 | 33.49059 | -84.65654 | 11933 ft | 374 kts | 151° |
| 2026-05-03 22:49 | 33.46768 | -84.64558 | 12257 ft | 338 kts | 172° |
| 2026-05-03 22:50 | 33.44559 | -84.64551 | 12638 ft | 301 kts | 194° |
| 2026-05-03 22:50 | 33.42484 | -84.64812 | 12874 ft | 308 kts | 178° |
| 2026-05-03 22:50 | 33.40394 | -84.64066 | 13492 ft | 322 kts | 155° |
| 2026-05-03 22:50 | 33.38454 | -84.62549 | 13873 ft | 346 kts | 143° |
| 2026-05-03 22:51 | 33.36579 | -84.60577 | 14010 ft | 370 kts | 138° |
| 2026-05-03 22:51 | 33.34738 | -84.58394 | 14014 ft | 374 kts | 136° |
| 2026-05-03 22:51 | 33.32919 | -84.56172 | 14017 ft | 373 kts | 136° |
| 2026-05-03 22:51 | 33.31110 | -84.53975 | 14284 ft | 377 kts | 136° |
| 2026-05-03 22:52 | 33.29256 | -84.51753 | 15101 ft | 377 kts | 137° |
| 2026-05-03 22:52 | 33.27381 | -84.49527 | 15881 ft | 381 kts | 137° |
| 2026-05-03 22:52 | 33.25479 | -84.47281 | 16627 ft | 385 kts | 137° |
| 2026-05-03 22:52 | 33.23556 | -84.45019 | 17359 ft | 389 kts | 137° |
| 2026-05-03 22:53 | 33.21618 | -84.42741 | 18090 ft | 393 kts | 138° |
| 2026-05-03 22:53 | 33.19655 | -84.40435 | 18760 ft | 397 kts | 138° |
| 2026-05-03 22:53 | 33.17671 | -84.38106 | 19390 ft | 401 kts | 138° |
| 2026-05-03 22:53 | 33.15676 | -84.35765 | 20030 ft | 405 kts | 138° |
| 2026-05-03 22:54 | 33.13678 | -84.33421 | 20646 ft | 408 kts | 138° |
| 2026-05-03 22:54 | 33.11634 | -84.31027 | 21263 ft | 412 kts | 138° |
| 2026-05-03 22:54 | 33.09573 | -84.28612 | 21862 ft | 416 kts | 138° |
| 2026-05-03 22:54 | 33.07489 | -84.26172 | 22448 ft | 420 kts | 138° |
| 2026-05-03 22:55 | 33.05398 | -84.23727 | 23034 ft | 424 kts | 138° |
| 2026-05-03 22:55 | 33.03274 | -84.21246 | 23639 ft | 428 kts | 138° |
| 2026-05-03 22:55 | 33.01056 | -84.18886 | 24128 ft | 428 kts | 147° |
| 2026-05-03 22:55 | 32.98598 | -84.16997 | 24614 ft | 425 kts | 156° |
| 2026-05-03 22:56 | 32.95891 | -84.15585 | 25110 ft | 422 kts | 166° |
| 2026-05-03 22:56 | 32.93094 | -84.14451 | 25608 ft | 424 kts | 166° |
| 2026-05-03 22:56 | 32.90295 | -84.13306 | 26093 ft | 427 kts | 166° |
| 2026-05-03 22:56 | 32.87473 | -84.12145 | 26566 ft | 430 kts | 166° |
| 2026-05-03 22:57 | 32.84667 | -84.10990 | 27019 ft | 432 kts | 167° |
| 2026-05-03 22:57 | 32.81812 | -84.09815 | 27486 ft | 435 kts | 167° |
| 2026-05-03 22:57 | 32.78932 | -84.08630 | 27911 ft | 437 kts | 167° |
| 2026-05-03 22:57 | 32.76052 | -84.07445 | 28337 ft | 440 kts | 167° |
| 2026-05-03 22:58 | 32.73146 | -84.06250 | 28735 ft | 441 kts | 168° |
| 2026-05-03 22:58 | 32.70229 | -84.05051 | 29157 ft | 443 kts | 168° |
| 2026-05-03 22:58 | 32.67335 | -84.03864 | 29524 ft | 446 kts | 168° |
| 2026-05-03 22:58 | 32.64401 | -84.02663 | 29887 ft | 449 kts | 168° |
| 2026-05-03 22:59 | 32.61440 | -84.01452 | 30272 ft | 451 kts | 168° |
| 2026-05-03 22:59 | 32.58464 | -84.00235 | 30626 ft | 452 kts | 168° |
| 2026-05-03 22:59 | 32.55477 | -83.99014 | 30988 ft | 454 kts | 168° |
| 2026-05-03 22:59 | 32.52464 | -83.97783 | 31360 ft | 454 kts | 169° |
| 2026-05-03 23:00 | 32.49510 | -83.96575 | 31812 ft | 453 kts | 169° |
| 2026-05-03 23:00 | 32.46528 | -83.95359 | 32282 ft | 450 kts | 169° |
| 2026-05-03 23:00 | 32.43601 | -83.94162 | 32818 ft | 447 kts | 170° |
| 2026-05-03 23:00 | 32.40664 | -83.92962 | 33277 ft | 445 kts | 170° |
| 2026-05-03 23:01 | 32.37739 | -83.91771 | 33714 ft | 443 kts | 170° |
| 2026-05-03 23:01 | 32.34821 | -83.90602 | 34146 ft | 439 kts | 172° |
| 2026-05-03 23:01 | 32.31918 | -83.89542 | 34492 ft | 436 kts | 173° |
| 2026-05-03 23:01 | 32.29055 | -83.88540 | 34771 ft | 435 kts | 174° |
| 2026-05-03 23:02 | 32.26137 | -83.87521 | 35072 ft | 435 kts | 174° |
| 2026-05-03 23:02 | 32.23233 | -83.86498 | 35358 ft | 436 kts | 173° |
| 2026-05-03 23:02 | 32.20324 | -83.85464 | 35632 ft | 436 kts | 173° |
| 2026-05-03 23:02 | 32.17422 | -83.84427 | 35893 ft | 434 kts | 174° |
| 2026-05-03 23:03 | 32.14521 | -83.83389 | 36165 ft | 434 kts | 174° |
| 2026-05-03 23:03 | 32.11662 | -83.82367 | 36420 ft | 434 kts | 174° |
| 2026-05-03 23:03 | 32.08764 | -83.81332 | 36674 ft | 434 kts | 174° |
| 2026-05-03 23:03 | 32.05867 | -83.80298 | 36899 ft | 434 kts | 174° |
| 2026-05-03 23:04 | 32.02966 | -83.79263 | 37149 ft | 434 kts | 174° |
| 2026-05-03 23:04 | 32.00076 | -83.78233 | 37373 ft | 434 kts | 174° |
| 2026-05-03 23:04 | 31.97207 | -83.77211 | 37600 ft | 434 kts | 174° |
| 2026-05-03 23:04 | 31.94314 | -83.76181 | 37830 ft | 433 kts | 174° |
| 2026-05-03 23:05 | 31.91424 | -83.75152 | 38001 ft | 433 kts | 175° |
| 2026-05-03 23:05 | 31.88535 | -83.74124 | 38269 ft | 432 kts | 175° |
| 2026-05-03 23:05 | 31.85693 | -83.73114 | 38469 ft | 432 kts | 175° |
| 2026-05-03 23:05 | 31.82811 | -83.72091 | 38659 ft | 432 kts | 175° |
| 2026-05-03 23:06 | 31.79927 | -83.71069 | 38834 ft | 432 kts | 175° |
| 2026-05-03 23:06 | 31.77039 | -83.70045 | 38971 ft | 432 kts | 175° |
| 2026-05-03 23:06 | 31.74159 | -83.69025 | 39079 ft | 432 kts | 175° |
| 2026-05-03 23:07 | 31.68420 | -83.66993 | 39120 ft | 432 kts | 175° |
| 2026-05-03 23:07 | 31.62678 | -83.64807 | 39098 ft | 433 kts | 174° |
| 2026-05-03 23:08 | 31.56972 | -83.62584 | 39120 ft | 432 kts | 174° |
| 2026-05-03 23:08 | 31.51257 | -83.60387 | 39119 ft | 432 kts | 174° |
| 2026-05-03 23:09 | 31.45540 | -83.58197 | 39117 ft | 431 kts | 174° |
| 2026-05-03 23:09 | 31.39858 | -83.56025 | 39114 ft | 431 kts | 174° |
| 2026-05-03 23:10 | 31.34144 | -83.53843 | 39105 ft | 430 kts | 175° |
| 2026-05-03 23:10 | 31.28496 | -83.51687 | 39119 ft | 428 kts | 175° |
| 2026-05-03 23:11 | 31.22804 | -83.49523 | 39118 ft | 429 kts | 175° |
| 2026-05-03 23:11 | 31.17119 | -83.47361 | 39116 ft | 429 kts | 175° |
| 2026-05-03 23:12 | 31.11469 | -83.45214 | 39120 ft | 429 kts | 175° |
| 2026-05-03 23:12 | 31.05780 | -83.43054 | 39091 ft | 428 kts | 175° |
| 2026-05-03 23:13 | 31.00114 | -83.40906 | 39106 ft | 428 kts | 175° |
| 2026-05-03 23:13 | 30.94467 | -83.38770 | 39098 ft | 428 kts | 175° |
| 2026-05-03 23:14 | 30.88787 | -83.36623 | 39115 ft | 428 kts | 175° |
| 2026-05-03 23:14 | 30.83115 | -83.34482 | 39106 ft | 428 kts | 175° |
| 2026-05-03 23:15 | 30.77439 | -83.32343 | 39080 ft | 429 kts | 175° |
| 2026-05-03 23:15 | 30.71792 | -83.30190 | 39097 ft | 432 kts | 173° |
| 2026-05-03 23:16 | 30.66185 | -83.27340 | 39100 ft | 442 kts | 168° |
| 2026-05-03 23:16 | 30.60609 | -83.24317 | 39109 ft | 442 kts | 168° |
| 2026-05-03 23:17 | 30.55964 | -83.21813 | 39111 ft | 443 kts | 168° |
| 2026-05-03 23:17 | 30.50354 | -83.18797 | 39121 ft | 443 kts | 168° |
| 2026-05-03 23:18 | 30.44758 | -83.15792 | 39132 ft | 444 kts | 168° |
| 2026-05-03 23:18 | 30.39194 | -83.12802 | 39125 ft | 440 kts | 169° |
| 2026-05-03 23:19 | 30.33627 | -83.09826 | 39124 ft | 441 kts | 169° |
| 2026-05-03 23:19 | 30.28054 | -83.06847 | 39118 ft | 440 kts | 169° |
| 2026-05-03 23:20 | 30.22521 | -83.03892 | 39124 ft | 441 kts | 169° |
| 2026-05-03 23:20 | 30.16958 | -83.00923 | 39118 ft | 439 kts | 169° |
| 2026-05-03 23:21 | 30.11390 | -82.97958 | 39119 ft | 440 kts | 169° |
| 2026-05-03 23:21 | 30.05816 | -82.94993 | 39117 ft | 440 kts | 169° |
| 2026-05-03 23:22 | 29.97505 | -82.90577 | 39108 ft | 440 kts | 169° |
| 2026-05-03 23:22 | 29.91923 | -82.87616 | 39058 ft | 441 kts | 170° |
| 2026-05-03 23:23 | 29.86374 | -82.84672 | 39097 ft | 439 kts | 170° |
| 2026-05-03 23:23 | 29.80803 | -82.81726 | 39096 ft | 439 kts | 170° |
| 2026-05-03 23:24 | 29.75281 | -82.78809 | 39098 ft | 439 kts | 170° |
| 2026-05-03 23:24 | 29.69746 | -82.75882 | 39094 ft | 434 kts | 170° |
| 2026-05-03 23:25 | 29.64243 | -82.72983 | 39097 ft | 435 kts | 170° |
| 2026-05-03 23:25 | 29.58770 | -82.70103 | 39093 ft | 434 kts | 170° |
| 2026-05-03 23:26 | 29.53260 | -82.67206 | 39094 ft | 435 kts | 170° |
| 2026-05-03 23:26 | 29.47757 | -82.64316 | 39092 ft | 435 kts | 170° |
| 2026-05-03 23:27 | 29.42251 | -82.61427 | 39089 ft | 435 kts | 170° |
| 2026-05-03 23:27 | 29.36774 | -82.58557 | 39090 ft | 435 kts | 170° |
| 2026-05-03 23:28 | 29.31259 | -82.55672 | 39071 ft | 432 kts | 172° |
| 2026-05-03 23:28 | 29.28499 | -82.54459 | 39083 ft | 420 kts | 178° |
| 2026-05-03 23:28 | 29.25711 | -82.53575 | 39083 ft | 409 kts | 182° |
| 2026-05-03 23:29 | 29.20232 | -82.52725 | 39079 ft | 391 kts | 192° |
| 2026-05-03 23:29 | 29.14833 | -82.52712 | 39076 ft | 387 kts | 194° |
| 2026-05-03 23:30 | 29.09469 | -82.52719 | 39075 ft | 387 kts | 194° |
| 2026-05-03 23:30 | 29.04062 | -82.52715 | 39029 ft | 388 kts | 194° |
| 2026-05-03 23:31 | 28.98660 | -82.52709 | 39066 ft | 387 kts | 194° |
| 2026-05-03 23:31 | 28.93282 | -82.52709 | 39067 ft | 388 kts | 194° |
| 2026-05-03 23:32 | 28.87867 | -82.52707 | 39077 ft | 389 kts | 194° |
| 2026-05-03 23:32 | 28.82437 | -82.52704 | 39084 ft | 390 kts | 194° |
| 2026-05-03 23:33 | 28.77039 | -82.52701 | 39084 ft | 390 kts | 194° |
| 2026-05-03 23:33 | 28.71597 | -82.52696 | 39067 ft | 390 kts | 194° |
| 2026-05-03 23:34 | 28.66163 | -82.52694 | 39070 ft | 391 kts | 194° |
| 2026-05-03 23:34 | 28.60737 | -82.52692 | 39075 ft | 391 kts | 194° |
| 2026-05-03 23:35 | 28.55288 | -82.52689 | 39071 ft | 392 kts | 194° |
| 2026-05-03 23:35 | 28.49817 | -82.52687 | 39074 ft | 392 kts | 194° |
| 2026-05-03 23:36 | 28.44370 | -82.52684 | 39039 ft | 392 kts | 194° |
| 2026-05-03 23:36 | 28.38892 | -82.52681 | 39051 ft | 392 kts | 194° |
| 2026-05-03 23:37 | 28.33454 | -82.52678 | 39049 ft | 393 kts | 194° |
| 2026-05-03 23:37 | 28.27961 | -82.52676 | 39057 ft | 394 kts | 194° |
| 2026-05-03 23:38 | 28.22478 | -82.52673 | 39065 ft | 395 kts | 194° |
| 2026-05-03 23:38 | 28.16994 | -82.52670 | 39067 ft | 396 kts | 194° |
| 2026-05-03 23:39 | 28.11470 | -82.52668 | 39045 ft | 396 kts | 194° |
| 2026-05-03 23:39 | 28.05964 | -82.52665 | 39050 ft | 397 kts | 194° |
| 2026-05-03 23:40 | 28.00339 | -82.52245 | 39057 ft | 412 kts | 186° |
| 2026-05-03 23:40 | 27.94637 | -82.50826 | 39062 ft | 430 kts | 178° |
| 2026-05-03 23:41 | 27.88931 | -82.48769 | 39045 ft | 432 kts | 177° |
| 2026-05-03 23:41 | 27.83195 | -82.46722 | 39041 ft | 432 kts | 177° |
| 2026-05-03 23:42 | 27.77463 | -82.44693 | 39047 ft | 433 kts | 177° |
| 2026-05-03 23:42 | 27.71708 | -82.42654 | 39048 ft | 432 kts | 177° |
| 2026-05-03 23:43 | 27.65960 | -82.40621 | 39050 ft | 432 kts | 177° |
| 2026-05-03 23:43 | 27.60252 | -82.38607 | 39052 ft | 432 kts | 176° |
| 2026-05-03 23:44 | 27.54495 | -82.36576 | 39050 ft | 432 kts | 176° |
| 2026-05-03 23:44 | 27.48776 | -82.34562 | 39047 ft | 433 kts | 176° |
| 2026-05-03 23:45 | 27.43014 | -82.32533 | 39049 ft | 433 kts | 176° |
| 2026-05-03 23:45 | 27.37281 | -82.30214 | 39058 ft | 446 kts | 169° |
| 2026-05-03 23:46 | 27.31735 | -82.26889 | 39051 ft | 457 kts | 164° |
| 2026-05-03 23:46 | 27.26199 | -82.23347 | 39051 ft | 457 kts | 164° |
| 2026-05-03 23:47 | 27.20674 | -82.19838 | 39043 ft | 456 kts | 164° |
| 2026-05-03 23:47 | 27.15132 | -82.16327 | 39045 ft | 457 kts | 164° |
| 2026-05-03 23:48 | 27.09578 | -82.12812 | 39059 ft | 457 kts | 164° |
| 2026-05-03 23:48 | 27.04045 | -82.09315 | 39070 ft | 458 kts | 164° |
| 2026-05-03 23:49 | 26.98510 | -82.05787 | 38773 ft | 460 kts | 161° |
| 2026-05-03 23:49 | 26.95877 | -82.03702 | 38085 ft | 475 kts | 153° |
| 2026-05-03 23:49 | 26.93379 | -82.01134 | 37205 ft | 492 kts | 144° |
| 2026-05-03 23:50 | 26.91053 | -81.98355 | 36434 ft | 494 kts | 144° |
| 2026-05-03 23:50 | 26.89471 | -81.96464 | 35940 ft | 495 kts | 144° |
| 2026-05-03 23:50 | 26.86339 | -81.92738 | 35018 ft | 494 kts | 144° |
| 2026-05-03 23:50 | 26.83979 | -81.89944 | 34267 ft | 492 kts | 144° |
| 2026-05-03 23:51 | 26.81637 | -81.87173 | 33400 ft | 488 kts | 144° |
| 2026-05-03 23:51 | 26.79291 | -81.84410 | 32520 ft | 490 kts | 143° |
| 2026-05-03 23:51 | 26.76935 | -81.81643 | 31667 ft | 492 kts | 143° |
| 2026-05-03 23:51 | 26.74556 | -81.78866 | 30820 ft | 494 kts | 143° |
| 2026-05-03 23:52 | 26.72173 | -81.76100 | 29989 ft | 496 kts | 142° |
| 2026-05-03 23:52 | 26.69764 | -81.73307 | 29033 ft | 497 kts | 142° |
| 2026-05-03 23:52 | 26.67357 | -81.70513 | 28121 ft | 497 kts | 142° |
| 2026-05-03 23:52 | 26.64987 | -81.67761 | 27245 ft | 497 kts | 142° |
| 2026-05-03 23:53 | 26.62652 | -81.64893 | 26411 ft | 500 kts | 136° |
| 2026-05-03 23:53 | 26.60617 | -81.61865 | 25991 ft | 482 kts | 134° |
| 2026-05-03 23:53 | 26.58654 | -81.58912 | 25687 ft | 462 kts | 134° |
| 2026-05-03 23:53 | 26.56741 | -81.56063 | 25200 ft | 455 kts | 134° |
| 2026-05-03 23:54 | 26.54841 | -81.53253 | 24673 ft | 451 kts | 135° |
| 2026-05-03 23:54 | 26.52958 | -81.50469 | 24156 ft | 447 kts | 134° |
| 2026-05-03 23:54 | 26.51086 | -81.47698 | 23650 ft | 443 kts | 134° |
| 2026-05-03 23:54 | 26.49251 | -81.44981 | 23082 ft | 439 kts | 134° |
| 2026-05-03 23:55 | 26.47409 | -81.42251 | 22517 ft | 434 kts | 134° |
| 2026-05-03 23:55 | 26.45622 | -81.39606 | 21943 ft | 431 kts | 134° |
| 2026-05-03 23:55 | 26.43806 | -81.36918 | 21317 ft | 428 kts | 134° |
| 2026-05-03 23:55 | 26.42032 | -81.34296 | 20709 ft | 426 kts | 134° |
| 2026-05-03 23:56 | 26.40235 | -81.31670 | 20021 ft | 425 kts | 135° |
| 2026-05-03 23:56 | 26.38353 | -81.29119 | 19317 ft | 424 kts | 136° |
| 2026-05-03 23:56 | 26.36445 | -81.26617 | 18632 ft | 423 kts | 136° |
| 2026-05-03 23:56 | 26.34543 | -81.24123 | 17975 ft | 421 kts | 136° |
| 2026-05-03 23:57 | 26.32651 | -81.21624 | 17306 ft | 418 kts | 135° |
| 2026-05-03 23:57 | 26.30821 | -81.19191 | 16652 ft | 410 kts | 135° |
| 2026-05-03 23:57 | 26.29015 | -81.16779 | 15999 ft | 399 kts | 135° |
| 2026-05-03 23:57 | 26.27256 | -81.14439 | 15372 ft | 388 kts | 135° |
| 2026-05-03 23:58 | 26.25526 | -81.12161 | 14760 ft | 379 kts | 135° |
| 2026-05-03 23:58 | 26.23845 | -81.09953 | 14168 ft | 371 kts | 135° |
| 2026-05-03 23:58 | 26.22182 | -81.07770 | 13539 ft | 364 kts | 135° |
| 2026-05-03 23:58 | 26.20556 | -81.05637 | 12886 ft | 358 kts | 135° |
| 2026-05-03 23:59 | 26.18978 | -81.03565 | 12238 ft | 352 kts | 134° |
| 2026-05-03 23:59 | 26.17405 | -81.01500 | 11601 ft | 347 kts | 134° |
| 2026-05-03 23:59 | 26.15869 | -80.99453 | 10976 ft | 343 kts | 130° |
| 2026-05-03 23:59 | 26.14732 | -80.97159 | 10602 ft | 334 kts | 113° |
| 2026-05-04 00:00 | 26.14154 | -80.94694 | 10256 ft | 324 kts | 102° |
| 2026-05-04 00:00 | 26.13756 | -80.92245 | 9688 ft | 320 kts | 102° |
| 2026-05-04 00:00 | 26.13026 | -80.89962 | 9251 ft | 305 kts | 127° |
| 2026-05-04 00:00 | 26.11568 | -80.88310 | 9104 ft | 302 kts | 151° |
| 2026-05-04 00:01 | 26.09897 | -80.86884 | 8972 ft | 304 kts | 135° |
| 2026-05-04 00:01 | 26.08834 | -80.84854 | 8842 ft | 311 kts | 109° |
| 2026-05-04 00:01 | 26.08454 | -80.82487 | 8688 ft | 313 kts | 93° |
| 2026-05-04 00:01 | 26.08366 | -80.80097 | 8282 ft | 313 kts | 93° |
| 2026-05-04 00:02 | 26.08290 | -80.77677 | 7938 ft | 313 kts | 92° |
| 2026-05-04 00:02 | 26.08232 | -80.75260 | 7578 ft | 311 kts | 92° |
| 2026-05-04 00:02 | 26.08187 | -80.72875 | 7205 ft | 308 kts | 91° |
| 2026-05-04 00:02 | 26.08160 | -80.71288 | 6959 ft | 307 kts | 91° |
| 2026-05-04 00:03 | 26.08123 | -80.68915 | 6585 ft | 305 kts | 91° |
| 2026-05-04 00:03 | 26.08087 | -80.66573 | 6222 ft | 302 kts | 91° |
| 2026-05-04 00:03 | 26.08051 | -80.64256 | 5926 ft | 297 kts | 91° |
| 2026-05-04 00:03 | 26.08015 | -80.61984 | 5644 ft | 291 kts | 91° |
| 2026-05-04 00:04 | 26.07979 | -80.59748 | 5344 ft | 286 kts | 91° |
| 2026-05-04 00:04 | 26.07943 | -80.57578 | 5238 ft | 274 kts | 91° |
| 2026-05-04 00:04 | 26.07909 | -80.55499 | 5145 ft | 263 kts | 91° |
| 2026-05-04 00:04 | 26.07877 | -80.53500 | 5048 ft | 252 kts | 91° |
| 2026-05-04 00:05 | 26.07892 | -80.51600 | 4952 ft | 242 kts | 88° |
| 2026-05-04 00:05 | 26.07931 | -80.49736 | 4759 ft | 238 kts | 91° |
| 2026-05-04 00:05 | 26.07917 | -80.47948 | 4616 ft | 229 kts | 91° |
| 2026-05-04 00:05 | 26.07904 | -80.46217 | 4514 ft | 218 kts | 91° |
| 2026-05-04 00:06 | 26.07891 | -80.44572 | 4398 ft | 209 kts | 91° |
| 2026-05-04 00:06 | 26.07878 | -80.42962 | 4188 ft | 205 kts | 91° |
| 2026-05-04 00:06 | 26.07865 | -80.41404 | 4017 ft | 201 kts | 91° |
| 2026-05-04 00:06 | 26.07853 | -80.39819 | 3954 ft | 206 kts | 91° |
| 2026-05-04 00:07 | 26.07841 | -80.38228 | 3755 ft | 202 kts | 91° |
| 2026-05-04 00:07 | 26.07830 | -80.36687 | 3486 ft | 198 kts | 91° |
| 2026-05-04 00:07 | 26.07818 | -80.35156 | 3222 ft | 197 kts | 91° |
| 2026-05-04 00:07 | 26.07807 | -80.33664 | 2963 ft | 195 kts | 91° |
| 2026-05-04 00:08 | 26.07796 | -80.32155 | 2701 ft | 194 kts | 91° |
| 2026-05-04 00:08 | 26.07786 | -80.30660 | 2456 ft | 189 kts | 90° |
| 2026-05-04 00:08 | 26.07776 | -80.29274 | 2209 ft | 171 kts | 90° |
| 2026-05-04 00:08 | 26.07767 | -80.28001 | 1994 ft | 157 kts | 90° |
| 2026-05-04 00:09 | 26.07760 | -80.26841 | 1799 ft | 142 kts | 89° |
| 2026-05-04 00:09 | 26.07753 | -80.25756 | 1626 ft | 145 kts | 89° |
| 2026-05-04 00:09 | 26.07745 | -80.24638 | 1425 ft | 143 kts | 89° |
| 2026-05-04 00:09 | 26.07739 | -80.23526 | 1243 ft | 144 kts | 89° |
| 2026-05-04 00:10 | 26.07732 | -80.22414 | 1056 ft | 144 kts | 89° |
| 2026-05-04 00:10 | 26.07724 | -80.21338 | 870 ft | 132 kts | 89° |
| 2026-05-04 00:10 | 26.07719 | -80.20315 | 711 ft | 134 kts | 88° |
| 2026-05-04 00:10 | 26.07712 | -80.19290 | 539 ft | 132 kts | 89° |
| 2026-05-04 00:11 | 26.07706 | -80.18263 | 374 ft | 131 kts | 88° |
| 2026-05-04 00:11 | 26.07699 | -80.17264 | 222 ft | 130 kts | 88° |
| 2026-05-04 00:11 | 26.07692 | -80.16247 | 56 ft | 132 kts | 88° |
| 2026-05-04 00:11 | 26.07697 | -80.15290 | 16 ft | 97 kts | 91° |
| 2026-05-04 00:12 | 26.07689 | -80.14879 | 18 ft | 33 kts | 92° |
| 2026-05-04 00:12 | 26.07644 | -80.14631 | 19 ft | 27 kts | 112° |
| 2026-05-04 00:12 | 26.07594 | -80.14530 | 17 ft | 14 kts | 131° |
| 2026-05-04 00:12 | 26.07588 | -80.14524 | 17 ft | 0 kts | 144° |
| 2026-05-04 00:13 | 26.07587 | -80.14524 | 17 ft | 1 kts | 144° |
| 2026-05-04 00:13 | 26.07548 | -80.14509 | 16 ft | 11 kts | 173° |
| 2026-05-04 00:13 | 26.07524 | -80.14508 | 17 ft | 0 kts | 179° |
| 2026-05-04 00:14 | 26.07501 | -80.14506 | 16 ft | 7 kts | 175° |
| 2026-05-04 00:15 | 26.07456 | -80.14522 | 16 ft | 8 kts | 213° |
| 2026-05-04 00:15 | 26.07410 | -80.14557 | 16 ft | 9 kts | 215° |
| 2026-05-04 00:15 | 26.07358 | -80.14593 | 15 ft | 7 kts | 209° |
| 2026-05-04 00:15 | 26.07342 | -80.14603 | 15 ft | 0 kts | 206° |